Airfield :
LOGIN :

Register | Disclaimer

   EN    FR    IT 

 










Legend :    VFR   Marginal VFR   IFR   Intensive IFR   Very Intensive IFR
Visi :
Ceiling :
>= 8 km
>= 3000ft
5 to 8 km
1000 to 3000 ft
1500m to 5 km
500 to 1000 ft
800 to 1500m
200 to 500 ft
< 800m
< 200 ft
Symbols :   Thunderstorms  Fog  Heavy snow  Heavy precipitations  Wind > 20 kt
SIGMETs :     Misc.  Thunderstorms  Icing  Turbulence  Mountain Waves  Volcanic Ashes






- Airport Elevation : 257 ft
- IATA code : MAN


EGCC - Manchester

CURRENT METAR :
  • 270720Z 25005KT 6000 -SHSN FEW004 SCT009 BKN018 01/01 Q0997

EXPIRED METARs :
  • 270650Z 25005KT 6000 -RA FEW003 SCT006 BKN024 02/01 Q0997 TEMPO 4000 SHRA
  • 270620Z AUTO 26003KT 6000 -RA BKN003 OVC009 02/01 Q0997 BECMG SCT003
  • 270550Z AUTO 24002KT 6000 -RA BKN004 OVC009 02/01 Q0997 RERA TEMPO 4000 SHRA
  • 270520Z AUTO 25005KT 200V280 9000 -RA BKN004 OVC010 02/01 Q0997 RESHRA RESN TEMPO 3000 SHRASN
  • 270450Z VRB02KT 6000 -SHRASN BKN009TCU BKN024 01/01 Q0997 TEMPO 3000 SHRASN

TAF AMD TAF EGCC
Valid from the 27 at 07:00 until the 28 at 12:00 UTC


270725Z 2707/2812 20008KT 9999 FEW005 BKN020
TEMPO 2707/2710 7000 RASN BKN005
PROB30
TEMPO 2707/2709 0800 SN BKN001
BECMG 2709/2712 30012KT
PROB30
TEMPO 2712/2718 31016G26KT 6000 SHRA
BECMG 2721/2724 20008KT
TEMPO 2808/2812 16016G26KT 7000 RA BKN012
ATIS : +44 161 499 2324



MET'MAP, your aeronautical weather chart ! - Copyright ORBIFLY December 2007 - Disclaimer

ORBIFLY MET'MAP TEAM :

Programming & Development : Alexandra Zaïnal
Concept & original design : Baudouin d'Aumeries
Assistance for programming : Marc-Olivier Méhu
Technical & hardware support : Manuel Goepfert

Contact : metmap@orbifly.com




SOURCES & CREDITS :

   NOAA